Owosso, Michigan
Current Conditions -  °F | °C
As of 8:54 PM on Monday 20 Oct 2014 (Local Time) from KRNP Reporting Station
Overcast Overcast  
Wind Chill: 52°   Ceiling: 4600
Heat Index: 52°   Visibility: 10mi
Dew Point: 47°   Wind: 10mph
Humidity: 84%   Direction: 330°NNW
Pressure: 29.87"   Gusts: NA
Location:  43°N, 84.18°W
Report Text: KRNP 210054Z AUTO 33009KT 10SM SCT040 OVC046 11/08 A2987 RMK AO2 T01090083
Loading
Personal Weather Stations






























Interactive Weather Map
Tropical Storm Tracking
New forecast layout! Learn more

10-Day Weather Forecast

Advertisements
Track Severe Weather on mobile